Ellsberry, Ohio
Current Conditions -  °F | °C
As of 6:15 AM on Wednesday 26 Nov 2014 (Local Time) from KFGX Reporting Station
Overcast Overcast  
Wind Chill: 25°   Ceiling: 12000
Heat Index: 30°   Visibility: 7mi
Dew Point: 28°   Wind: 5mph
Humidity: 92%   Direction: 20°NNE
Pressure: 30.08"   Gusts: NA
Location:  38.6956°N, 83.7386°W
Report Text: KFGX 261115Z AUTO 02004KT 7SM OVC120 M01/M02 A3008 RMK AO2 T10101021
Loading
Personal Weather Stations






























Interactive Weather Map New forecast layout! Learn more

10-Day Weather Forecast

Advertisements
Track Severe Weather on mobile